sensor_id;sensor_type;location;lat;lon;timestamp;temperature;humidity
43089;DHT22;28709;52.030;5.652;2022-08-19T00:02:04;19.50;99.90
43089;DHT22;28709;52.030;5.652;2022-08-19T00:04:32;19.50;99.90
43089;DHT22;28709;52.030;5.652;2022-08-19T00:07:00;19.50;99.90
43089;DHT22;28709;52.030;5.652;2022-08-19T00:09:26;19.40;99.90
43089;DHT22;28709;52.030;5.652;2022-08-19T00:11:53;19.40;99.90
43089;DHT22;28709;52.030;5.652;2022-08-19T00:14:21;19.40;99.90
43089;DHT22;28709;52.030;5.652;2022-08-19T00:16:48;19.30;99.90
43089;DHT22;28709;52.030;5.652;2022-08-19T00:19:15;19.30;99.90
43089;DHT22;28709;52.030;5.652;2022-08-19T00:21:41;19.30;99.90
43089;DHT22;28709;52.030;5.652;2022-08-19T00:24:08;19.20;99.90
43089;DHT22;28709;52.030;5.652;2022-08-19T00:26:34;19.20;99.90
43089;DHT22;28709;52.030;5.652;2022-08-19T00:29:01;19.20;99.90
43089;DHT22;28709;52.030;5.652;2022-08-19T00:31:27;19.20;99.90
43089;DHT22;28709;52.030;5.652;2022-08-19T00:33:54;19.20;99.90
43089;DHT22;28709;52.030;5.652;2022-08-19T00:36:20;19.10;99.90
43089;DHT22;28709;52.030;5.652;2022-08-19T00:38:46;19.10;99.90
43089;DHT22;28709;52.030;5.652;2022-08-19T00:41:16;19.10;99.90
43089;DHT22;28709;52.030;5.652;2022-08-19T00:43:50;19.10;99.90
43089;DHT22;28709;52.030;5.652;2022-08-19T00:46:27;19.10;99.90
43089;DHT22;28709;52.030;5.652;2022-08-19T00:48:55;19.10;99.90
43089;DHT22;28709;52.030;5.652;2022-08-19T00:51:23;19.00;99.90
43089;DHT22;28709;52.030;5.652;2022-08-19T00:53:50;19.00;99.90
43089;DHT22;28709;52.030;5.652;2022-08-19T00:56:16;19.00;99.90
43089;DHT22;28709;52.030;5.652;2022-08-19T00:58:42;19.00;99.90
43089;DHT22;28709;52.030;5.652;2022-08-19T01:01:08;18.90;99.90
43089;DHT22;28709;52.030;5.652;2022-08-19T01:03:34;18.90;99.90
43089;DHT22;28709;52.030;5.652;2022-08-19T01:06:00;19.00;99.90
43089;DHT22;28709;52.030;5.652;2022-08-19T01:08:26;19.00;99.90
43089;DHT22;28709;52.030;5.652;2022-08-19T01:10:58;18.90;99.90
43089;DHT22;28709;52.030;5.652;2022-08-19T01:13:27;18.90;99.90
43089;DHT22;28709;52.030;5.652;2022-08-19T01:16:02;18.90;99.90
43089;DHT22;28709;52.030;5.652;2022-08-19T01:18:29;18.90;99.90
43089;DHT22;28709;52.030;5.652;2022-08-19T01:20:58;18.90;99.90
43089;DHT22;28709;52.030;5.652;2022-08-19T01:23:25;18.80;99.90
43089;DHT22;28709;52.030;5.652;2022-08-19T01:26:09;18.90;99.90
43089;DHT22;28709;52.030;5.652;2022-08-19T01:28:36;18.80;99.90
43089;DHT22;28709;52.030;5.652;2022-08-19T01:31:02;18.90;99.90
43089;DHT22;28709;52.030;5.652;2022-08-19T01:33:28;18.80;99.90
43089;DHT22;28709;52.030;5.652;2022-08-19T01:36:10;18.80;99.90
43089;DHT22;28709;52.030;5.652;2022-08-19T01:38:41;18.80;99.90
43089;DHT22;28709;52.030;5.652;2022-08-19T01:41:08;18.70;99.90
43089;DHT22;28709;52.030;5.652;2022-08-19T01:43:34;18.70;99.90
43089;DHT22;28709;52.030;5.652;2022-08-19T01:46:00;18.70;99.90
43089;DHT22;28709;52.030;5.652;2022-08-19T01:48:27;18.60;99.90
43089;DHT22;28709;52.030;5.652;2022-08-19T01:50:54;18.60;99.90
43089;DHT22;28709;52.030;5.652;2022-08-19T01:53:21;18.60;99.90
43089;DHT22;28709;52.030;5.652;2022-08-19T01:55:46;18.60;99.90
43089;DHT22;28709;52.030;5.652;2022-08-19T01:58:19;18.60;99.90
43089;DHT22;28709;52.030;5.652;2022-08-19T02:00:47;18.60;99.90
43089;DHT22;28709;52.030;5.652;2022-08-19T02:03:13;18.50;99.90
43089;DHT22;28709;52.030;5.652;2022-08-19T02:05:40;18.50;99.90
43089;DHT22;28709;52.030;5.652;2022-08-19T02:08:06;18.50;99.90
43089;DHT22;28709;52.030;5.652;2022-08-19T02:10:32;18.50;99.90
43089;DHT22;28709;52.030;5.652;2022-08-19T02:12:58;18.50;99.90
43089;DHT22;28709;52.030;5.652;2022-08-19T02:15:24;18.50;99.90
43089;DHT22;28709;52.030;5.652;2022-08-19T02:17:51;18.40;99.90
43089;DHT22;28709;52.030;5.652;2022-08-19T02:20:16;18.40;99.90
43089;DHT22;28709;52.030;5.652;2022-08-19T02:22:43;18.40;99.90
43089;DHT22;28709;52.030;5.652;2022-08-19T02:25:13;18.40;99.90
43089;DHT22;28709;52.030;5.652;2022-08-19T02:27:39;18.30;99.90
43089;DHT22;28709;52.030;5.652;2022-08-19T02:30:07;18.30;99.90
43089;DHT22;28709;52.030;5.652;2022-08-19T02:32:33;18.20;99.90
43089;DHT22;28709;52.030;5.652;2022-08-19T02:34:59;18.10;99.90
43089;DHT22;28709;52.030;5.652;2022-08-19T02:37:25;18.10;99.90
43089;DHT22;28709;52.030;5.652;2022-08-19T02:40:09;18.10;99.90
43089;DHT22;28709;52.030;5.652;2022-08-19T02:42:35;18.10;99.90
43089;DHT22;28709;52.030;5.652;2022-08-19T02:45:01;18.10;99.90
43089;DHT22;28709;52.030;5.652;2022-08-19T02:47:27;18.10;99.90
43089;DHT22;28709;52.030;5.652;2022-08-19T02:49:52;18.10;99.90
43089;DHT22;28709;52.030;5.652;2022-08-19T02:52:18;18.00;99.90
43089;DHT22;28709;52.030;5.652;2022-08-19T02:54:44;18.00;99.90
43089;DHT22;28709;52.030;5.652;2022-08-19T02:57:09;18.00;99.90
43089;DHT22;28709;52.030;5.652;2022-08-19T02:59:35;18.00;99.90
43089;DHT22;28709;52.030;5.652;2022-08-19T03:02:01;18.00;99.90
43089;DHT22;28709;52.030;5.652;2022-08-19T03:04:27;18.00;99.90
43089;DHT22;28709;52.030;5.652;2022-08-19T03:06:52;18.00;99.90
43089;DHT22;28709;52.030;5.652;2022-08-19T03:09:20;18.00;99.90
43089;DHT22;28709;52.030;5.652;2022-08-19T03:11:46;18.00;99.90
43089;DHT22;28709;52.030;5.652;2022-08-19T03:14:12;18.00;99.90
43089;DHT22;28709;52.030;5.652;2022-08-19T03:16:52;18.00;99.90
43089;DHT22;28709;52.030;5.652;2022-08-19T03:19:19;18.00;99.90
43089;DHT22;28709;52.030;5.652;2022-08-19T03:21:46;17.90;99.90
43089;DHT22;28709;52.030;5.652;2022-08-19T03:24:13;17.90;99.90
43089;DHT22;28709;52.030;5.652;2022-08-19T03:26:45;17.90;99.90
43089;DHT22;28709;52.030;5.652;2022-08-19T03:29:10;17.90;99.90
43089;DHT22;28709;52.030;5.652;2022-08-19T03:31:37;17.90;99.90
43089;DHT22;28709;52.030;5.652;2022-08-19T03:34:03;17.90;99.90
43089;DHT22;28709;52.030;5.652;2022-08-19T03:36:29;17.90;99.90
43089;DHT22;28709;52.030;5.652;2022-08-19T03:38:59;17.90;99.90
43089;DHT22;28709;52.030;5.652;2022-08-19T03:41:31;17.90;99.90
43089;DHT22;28709;52.030;5.652;2022-08-19T03:43:57;17.90;99.90
43089;DHT22;28709;52.030;5.652;2022-08-19T03:46:29;17.80;99.90
43089;DHT22;28709;52.030;5.652;2022-08-19T03:48:57;17.80;99.90
43089;DHT22;28709;52.030;5.652;2022-08-19T03:51:35;17.80;99.90
43089;DHT22;28709;52.030;5.652;2022-08-19T03:54:03;17.70;99.90
43089;DHT22;28709;52.030;5.652;2022-08-19T03:56:30;17.70;99.90
43089;DHT22;28709;52.030;5.652;2022-08-19T03:58:57;17.70;99.90
43089;DHT22;28709;52.030;5.652;2022-08-19T04:01:25;17.60;99.90
43089;DHT22;28709;52.030;5.652;2022-08-19T04:03:52;17.60;99.90
43089;DHT22;28709;52.030;5.652;2022-08-19T04:06:24;17.60;99.90
43089;DHT22;28709;52.030;5.652;2022-08-19T04:08:51;17.50;99.90
43089;DHT22;28709;52.030;5.652;2022-08-19T04:11:22;17.50;99.90
43089;DHT22;28709;52.030;5.652;2022-08-19T04:13:49;17.50;99.90
43089;DHT22;28709;52.030;5.652;2022-08-19T04:16:16;17.50;99.90
43089;DHT22;28709;52.030;5.652;2022-08-19T04:18:43;17.50;99.90
43089;DHT22;28709;52.030;5.652;2022-08-19T04:21:16;17.50;99.90
43089;DHT22;28709;52.030;5.652;2022-08-19T04:23:41;17.50;99.90
43089;DHT22;28709;52.030;5.652;2022-08-19T04:26:12;17.40;99.90
43089;DHT22;28709;52.030;5.652;2022-08-19T04:28:39;17.50;99.90
43089;DHT22;28709;52.030;5.652;2022-08-19T04:31:05;17.40;99.90
43089;DHT22;28709;52.030;5.652;2022-08-19T04:33:30;17.40;99.90
43089;DHT22;28709;52.030;5.652;2022-08-19T04:35:56;17.40;99.90
43089;DHT22;28709;52.030;5.652;2022-08-19T04:38:23;17.30;99.90
43089;DHT22;28709;52.030;5.652;2022-08-19T04:40:51;17.30;99.90
43089;DHT22;28709;52.030;5.652;2022-08-19T04:43:37;17.30;99.90
43089;DHT22;28709;52.030;5.652;2022-08-19T04:46:08;17.30;99.90
43089;DHT22;28709;52.030;5.652;2022-08-19T04:48:35;17.20;99.90
43089;DHT22;28709;52.030;5.652;2022-08-19T04:51:06;17.20;99.90
43089;DHT22;28709;52.030;5.652;2022-08-19T04:53:34;17.20;99.90
43089;DHT22;28709;52.030;5.652;2022-08-19T04:56:07;17.20;99.90
43089;DHT22;28709;52.030;5.652;2022-08-19T04:58:33;17.20;99.90
43089;DHT22;28709;52.030;5.652;2022-08-19T05:00:59;17.20;99.90
43089;DHT22;28709;52.030;5.652;2022-08-19T05:03:25;17.20;99.90
43089;DHT22;28709;52.030;5.652;2022-08-19T05:05:51;17.20;99.90
43089;DHT22;28709;52.030;5.652;2022-08-19T05:08:20;17.20;99.90
43089;DHT22;28709;52.030;5.652;2022-08-19T05:10:48;17.20;99.90
43089;DHT22;28709;52.030;5.652;2022-08-19T05:13:16;17.20;99.90
43089;DHT22;28709;52.030;5.652;2022-08-19T05:15:43;17.30;99.90
43089;DHT22;28709;52.030;5.652;2022-08-19T05:18:09;17.40;99.90
43089;DHT22;28709;52.030;5.652;2022-08-19T05:20:53;17.40;99.90
43089;DHT22;28709;52.030;5.652;2022-08-19T05:23:38;17.40;99.90
43089;DHT22;28709;52.030;5.652;2022-08-19T05:26:04;17.40;99.90
43089;DHT22;28709;52.030;5.652;2022-08-19T05:28:30;17.40;99.90
43089;DHT22;28709;52.030;5.652;2022-08-19T05:30:55;17.40;99.90
43089;DHT22;28709;52.030;5.652;2022-08-19T05:33:22;17.40;99.90
43089;DHT22;28709;52.030;5.652;2022-08-19T05:35:48;17.40;99.90
43089;DHT22;28709;52.030;5.652;2022-08-19T05:38:18;17.50;99.90
43089;DHT22;28709;52.030;5.652;2022-08-19T05:40:43;17.50;99.90
43089;DHT22;28709;52.030;5.652;2022-08-19T05:43:14;17.60;99.90
43089;DHT22;28709;52.030;5.652;2022-08-19T05:45:42;17.70;99.90
43089;DHT22;28709;52.030;5.652;2022-08-19T05:48:11;17.70;99.90
43089;DHT22;28709;52.030;5.652;2022-08-19T05:50:39;17.80;99.90
43089;DHT22;28709;52.030;5.652;2022-08-19T05:53:05;17.90;99.90
43089;DHT22;28709;52.030;5.652;2022-08-19T05:55:31;18.00;99.90
43089;DHT22;28709;52.030;5.652;2022-08-19T05:57:57;18.10;99.90
43089;DHT22;28709;52.030;5.652;2022-08-19T06:00:23;18.20;99.90
43089;DHT22;28709;52.030;5.652;2022-08-19T06:02:49;18.30;99.90
43089;DHT22;28709;52.030;5.652;2022-08-19T06:05:16;18.40;99.90
43089;DHT22;28709;52.030;5.652;2022-08-19T06:07:42;18.50;99.90
43089;DHT22;28709;52.030;5.652;2022-08-19T06:10:09;18.60;99.90
43089;DHT22;28709;52.030;5.652;2022-08-19T06:12:36;18.70;99.90
43089;DHT22;28709;52.030;5.652;2022-08-19T06:15:10;18.70;99.90
43089;DHT22;28709;52.030;5.652;2022-08-19T06:17:36;18.80;99.90
43089;DHT22;28709;52.030;5.652;2022-08-19T06:20:04;18.80;99.90
43089;DHT22;28709;52.030;5.652;2022-08-19T06:22:30;18.90;99.90
43089;DHT22;28709;52.030;5.652;2022-08-19T06:24:56;18.90;99.90
43089;DHT22;28709;52.030;5.652;2022-08-19T06:27:22;19.00;99.90
43089;DHT22;28709;52.030;5.652;2022-08-19T06:29:48;19.00;99.90
43089;DHT22;28709;52.030;5.652;2022-08-19T06:32:15;19.10;99.90
43089;DHT22;28709;52.030;5.652;2022-08-19T06:34:42;19.10;99.90
43089;DHT22;28709;52.030;5.652;2022-08-19T06:37:08;19.20;99.90
43089;DHT22;28709;52.030;5.652;2022-08-19T06:39:37;19.20;99.90
43089;DHT22;28709;52.030;5.652;2022-08-19T06:42:05;19.20;99.90
43089;DHT22;28709;52.030;5.652;2022-08-19T06:44:34;19.30;99.90
43089;DHT22;28709;52.030;5.652;2022-08-19T06:47:03;19.40;99.90
43089;DHT22;28709;52.030;5.652;2022-08-19T06:49:29;19.40;99.90
43089;DHT22;28709;52.030;5.652;2022-08-19T06:51:57;19.40;99.90
43089;DHT22;28709;52.030;5.652;2022-08-19T06:54:24;19.40;99.90
43089;DHT22;28709;52.030;5.652;2022-08-19T06:56:50;19.40;99.90
43089;DHT22;28709;52.030;5.652;2022-08-19T06:59:19;19.40;99.90
43089;DHT22;28709;52.030;5.652;2022-08-19T07:01:56;19.40;99.90
43089;DHT22;28709;52.030;5.652;2022-08-19T07:04:24;19.50;99.90
43089;DHT22;28709;52.030;5.652;2022-08-19T07:06:56;19.50;99.90
43089;DHT22;28709;52.030;5.652;2022-08-19T07:09:22;19.60;99.90
43089;DHT22;28709;52.030;5.652;2022-08-19T07:11:50;19.60;99.90
43089;DHT22;28709;52.030;5.652;2022-08-19T07:14:18;19.70;99.90
43089;DHT22;28709;52.030;5.652;2022-08-19T07:16:44;19.70;99.90
43089;DHT22;28709;52.030;5.652;2022-08-19T07:19:13;19.70;99.90
43089;DHT22;28709;52.030;5.652;2022-08-19T07:21:40;19.80;99.90
43089;DHT22;28709;52.030;5.652;2022-08-19T07:24:06;19.80;99.90
43089;DHT22;28709;52.030;5.652;2022-08-19T07:26:39;19.80;99.90
43089;DHT22;28709;52.030;5.652;2022-08-19T07:29:06;19.80;99.90
43089;DHT22;28709;52.030;5.652;2022-08-19T07:31:32;19.80;99.90
43089;DHT22;28709;52.030;5.652;2022-08-19T07:34:04;19.70;99.90
43089;DHT22;28709;52.030;5.652;2022-08-19T07:36:33;19.70;99.90
43089;DHT22;28709;52.030;5.652;2022-08-19T07:39:02;19.70;99.90
43089;DHT22;28709;52.030;5.652;2022-08-19T07:41:29;19.70;99.90
43089;DHT22;28709;52.030;5.652;2022-08-19T07:43:56;19.70;99.90
43089;DHT22;28709;52.030;5.652;2022-08-19T07:46:21;19.80;99.90
43089;DHT22;28709;52.030;5.652;2022-08-19T07:48:48;20.00;99.90
43089;DHT22;28709;52.030;5.652;2022-08-19T07:51:18;20.00;99.90
43089;DHT22;28709;52.030;5.652;2022-08-19T07:53:44;20.20;99.90
43089;DHT22;28709;52.030;5.652;2022-08-19T07:56:12;20.40;99.90
43089;DHT22;28709;52.030;5.652;2022-08-19T07:58:43;20.70;99.90
43089;DHT22;28709;52.030;5.652;2022-08-19T08:01:15;21.00;99.90
43089;DHT22;28709;52.030;5.652;2022-08-19T08:03:42;21.00;99.90
43089;DHT22;28709;52.030;5.652;2022-08-19T08:06:26;21.00;99.90
43089;DHT22;28709;52.030;5.652;2022-08-19T08:09:12;21.10;99.90
43089;DHT22;28709;52.030;5.652;2022-08-19T08:11:51;21.20;99.90
43089;DHT22;28709;52.030;5.652;2022-08-19T08:14:20;21.20;99.90
43089;DHT22;28709;52.030;5.652;2022-08-19T08:16:48;21.20;99.90
43089;DHT22;28709;52.030;5.652;2022-08-19T08:19:19;21.20;99.90
43089;DHT22;28709;52.030;5.652;2022-08-19T08:21:47;21.20;99.90
43089;DHT22;28709;52.030;5.652;2022-08-19T08:24:13;21.20;99.90
43089;DHT22;28709;52.030;5.652;2022-08-19T08:26:39;21.40;99.90
43089;DHT22;28709;52.030;5.652;2022-08-19T08:29:06;21.70;99.90
43089;DHT22;28709;52.030;5.652;2022-08-19T08:31:35;21.70;99.90
43089;DHT22;28709;52.030;5.652;2022-08-19T08:34:01;21.80;99.90
43089;DHT22;28709;52.030;5.652;2022-08-19T08:36:27;21.70;99.90
43089;DHT22;28709;52.030;5.652;2022-08-19T08:38:53;21.90;99.90
43089;DHT22;28709;52.030;5.652;2022-08-19T08:41:56;22.10;99.90
43089;DHT22;28709;52.030;5.652;2022-08-19T08:47:09;22.50;99.90
43089;DHT22;28709;52.030;5.652;2022-08-19T08:49:41;22.60;99.90
43089;DHT22;28709;52.030;5.652;2022-08-19T08:52:45;22.60;99.90
43089;DHT22;28709;52.030;5.652;2022-08-19T08:55:18;22.50;99.90
43089;DHT22;28709;52.030;5.652;2022-08-19T09:00:23;22.40;99.90
43089;DHT22;28709;52.030;5.652;2022-08-19T09:02:50;22.50;99.90
43089;DHT22;28709;52.030;5.652;2022-08-19T09:05:15;22.60;99.90
43089;DHT22;28709;52.030;5.652;2022-08-19T09:08:18;22.60;99.90
43089;DHT22;28709;52.030;5.652;2022-08-19T09:10:53;22.60;99.90
43089;DHT22;28709;52.030;5.652;2022-08-19T09:16:26;22.60;99.90
43089;DHT22;28709;52.030;5.652;2022-08-19T09:19:05;22.60;99.90
43089;DHT22;28709;52.030;5.652;2022-08-19T09:21:32;22.60;99.90
43089;DHT22;28709;52.030;5.652;2022-08-19T09:23:58;22.70;99.90
43089;DHT22;28709;52.030;5.652;2022-08-19T09:26:24;22.80;99.90
43089;DHT22;28709;52.030;5.652;2022-08-19T09:28:52;23.00;99.90
43089;DHT22;28709;52.030;5.652;2022-08-19T09:31:23;23.30;99.90
43089;DHT22;28709;52.030;5.652;2022-08-19T09:33:49;23.70;99.90
43089;DHT22;28709;52.030;5.652;2022-08-19T09:36:17;24.00;99.90
43089;DHT22;28709;52.030;5.652;2022-08-19T09:38:44;24.40;99.90
43089;DHT22;28709;52.030;5.652;2022-08-19T09:41:16;24.60;99.90
43089;DHT22;28709;52.030;5.652;2022-08-19T09:43:45;24.80;99.90
43089;DHT22;28709;52.030;5.652;2022-08-19T09:46:11;24.90;99.90
43089;DHT22;28709;52.030;5.652;2022-08-19T09:48:38;25.10;99.90
43089;DHT22;28709;52.030;5.652;2022-08-19T09:51:15;25.30;99.90
43089;DHT22;28709;52.030;5.652;2022-08-19T09:53:42;25.50;99.90
43089;DHT22;28709;52.030;5.652;2022-08-19T09:56:09;25.60;99.90
43089;DHT22;28709;52.030;5.652;2022-08-19T09:58:35;25.60;99.90
43089;DHT22;28709;52.030;5.652;2022-08-19T10:01:02;25.40;99.90
43089;DHT22;28709;52.030;5.652;2022-08-19T10:03:30;25.50;99.90
43089;DHT22;28709;52.030;5.652;2022-08-19T10:05:58;25.60;99.90
43089;DHT22;28709;52.030;5.652;2022-08-19T10:08:30;25.70;99.90
43089;DHT22;28709;52.030;5.652;2022-08-19T10:10:57;25.70;99.90
43089;DHT22;28709;52.030;5.652;2022-08-19T10:13:25;25.60;99.90
43089;DHT22;28709;52.030;5.652;2022-08-19T10:15:57;25.60;99.90
43089;DHT22;28709;52.030;5.652;2022-08-19T10:18:27;25.50;99.90
43089;DHT22;28709;52.030;5.652;2022-08-19T10:21:01;25.30;99.90
43089;DHT22;28709;52.030;5.652;2022-08-19T10:23:27;25.30;99.90
43089;DHT22;28709;52.030;5.652;2022-08-19T10:25:59;25.40;99.90
43089;DHT22;28709;52.030;5.652;2022-08-19T10:28:25;25.50;99.90
43089;DHT22;28709;52.030;5.652;2022-08-19T10:30:50;25.70;99.90
43089;DHT22;28709;52.030;5.652;2022-08-19T10:33:16;25.80;99.90
43089;DHT22;28709;52.030;5.652;2022-08-19T10:35:42;25.70;99.90
43089;DHT22;28709;52.030;5.652;2022-08-19T10:38:08;25.50;99.90
43089;DHT22;28709;52.030;5.652;2022-08-19T10:40:33;25.40;99.90
43089;DHT22;28709;52.030;5.652;2022-08-19T10:43:00;25.60;99.90
43089;DHT22;28709;52.030;5.652;2022-08-19T10:45:25;25.70;99.90
43089;DHT22;28709;52.030;5.652;2022-08-19T10:47:54;25.80;99.90
43089;DHT22;28709;52.030;5.652;2022-08-19T10:50:20;25.90;99.90
43089;DHT22;28709;52.030;5.652;2022-08-19T10:53:06;26.00;99.90
43089;DHT22;28709;52.030;5.652;2022-08-19T10:55:35;25.90;99.90
43089;DHT22;28709;52.030;5.652;2022-08-19T10:58:21;25.90;99.90
43089;DHT22;28709;52.030;5.652;2022-08-19T11:00:57;25.80;99.90
43089;DHT22;28709;52.030;5.652;2022-08-19T11:03:24;25.80;99.90
43089;DHT22;28709;52.030;5.652;2022-08-19T11:06:03;25.50;99.90
43089;DHT22;28709;52.030;5.652;2022-08-19T11:08:29;25.50;99.90
43089;DHT22;28709;52.030;5.652;2022-08-19T11:10:59;25.40;99.90
43089;DHT22;28709;52.030;5.652;2022-08-19T11:13:38;25.20;99.90
43089;DHT22;28709;52.030;5.652;2022-08-19T11:16:07;25.30;99.90
43089;DHT22;28709;52.030;5.652;2022-08-19T11:18:35;25.60;99.90
43089;DHT22;28709;52.030;5.652;2022-08-19T11:21:31;25.80;99.90
43089;DHT22;28709;52.030;5.652;2022-08-19T11:24:00;26.10;99.90
43089;DHT22;28709;52.030;5.652;2022-08-19T11:26:27;26.30;99.90
43089;DHT22;28709;52.030;5.652;2022-08-19T11:28:54;26.40;99.90
43089;DHT22;28709;52.030;5.652;2022-08-19T11:31:25;26.40;99.90
43089;DHT22;28709;52.030;5.652;2022-08-19T11:33:51;26.50;99.90
43089;DHT22;28709;52.030;5.652;2022-08-19T11:36:19;26.30;99.90
43089;DHT22;28709;52.030;5.652;2022-08-19T11:38:46;26.20;99.90
43089;DHT22;28709;52.030;5.652;2022-08-19T11:41:15;26.10;99.90
43089;DHT22;28709;52.030;5.652;2022-08-19T11:43:41;26.00;99.90
43089;DHT22;28709;52.030;5.652;2022-08-19T11:46:10;25.80;99.90
43089;DHT22;28709;52.030;5.652;2022-08-19T11:48:38;25.80;99.90
43089;DHT22;28709;52.030;5.652;2022-08-19T11:51:06;25.80;99.90
43089;DHT22;28709;52.030;5.652;2022-08-19T11:53:33;25.90;99.90
43089;DHT22;28709;52.030;5.652;2022-08-19T11:55:59;26.00;99.90
43089;DHT22;28709;52.030;5.652;2022-08-19T11:58:25;26.10;99.90
43089;DHT22;28709;52.030;5.652;2022-08-19T12:00:51;26.10;99.90
43089;DHT22;28709;52.030;5.652;2022-08-19T12:03:18;26.00;99.90
43089;DHT22;28709;52.030;5.652;2022-08-19T12:05:45;25.90;99.90
43089;DHT22;28709;52.030;5.652;2022-08-19T12:08:12;25.90;99.90
43089;DHT22;28709;52.030;5.652;2022-08-19T12:10:41;26.00;99.90
43089;DHT22;28709;52.030;5.652;2022-08-19T12:13:08;26.10;99.90
43089;DHT22;28709;52.030;5.652;2022-08-19T12:15:38;26.40;99.90
43089;DHT22;28709;52.030;5.652;2022-08-19T12:18:06;26.60;99.90
43089;DHT22;28709;52.030;5.652;2022-08-19T12:20:35;26.80;99.70
43089;DHT22;28709;52.030;5.652;2022-08-19T12:23:01;27.00;99.70
43089;DHT22;28709;52.030;5.652;2022-08-19T12:25:27;27.20;99.10
43089;DHT22;28709;52.030;5.652;2022-08-19T12:27:52;27.30;98.90
43089;DHT22;28709;52.030;5.652;2022-08-19T12:30:18;27.20;99.00
43089;DHT22;28709;52.030;5.652;2022-08-19T12:32:44;27.30;99.20
43089;DHT22;28709;52.030;5.652;2022-08-19T12:35:09;27.50;99.20
43089;DHT22;28709;52.030;5.652;2022-08-19T12:37:36;27.50;98.70
43089;DHT22;28709;52.030;5.652;2022-08-19T12:40:01;27.30;98.70
43089;DHT22;28709;52.030;5.652;2022-08-19T12:42:28;27.30;98.50
43089;DHT22;28709;52.030;5.652;2022-08-19T12:44:54;27.30;98.80
43089;DHT22;28709;52.030;5.652;2022-08-19T12:47:20;27.30;98.70
43089;DHT22;28709;52.030;5.652;2022-08-19T12:49:46;27.30;98.50
43089;DHT22;28709;52.030;5.652;2022-08-19T12:52:13;27.20;98.90
43089;DHT22;28709;52.030;5.652;2022-08-19T12:54:42;27.30;98.70
43089;DHT22;28709;52.030;5.652;2022-08-19T12:57:09;27.40;99.00
43089;DHT22;28709;52.030;5.652;2022-08-19T12:59:37;27.60;98.80
43089;DHT22;28709;52.030;5.652;2022-08-19T13:02:07;27.60;98.70
43089;DHT22;28709;52.030;5.652;2022-08-19T13:04:33;27.40;98.50
43089;DHT22;28709;52.030;5.652;2022-08-19T13:07:06;27.20;98.80
43089;DHT22;28709;52.030;5.652;2022-08-19T13:09:33;27.10;99.00
43089;DHT22;28709;52.030;5.652;2022-08-19T13:11:58;27.00;99.10
43089;DHT22;28709;52.030;5.652;2022-08-19T13:14:27;26.90;99.10
43089;DHT22;28709;52.030;5.652;2022-08-19T13:16:55;26.80;98.90
43089;DHT22;28709;52.030;5.652;2022-08-19T13:19:22;26.60;99.10
43089;DHT22;28709;52.030;5.652;2022-08-19T13:21:52;26.50;99.20
43089;DHT22;28709;52.030;5.652;2022-08-19T13:24:19;26.30;99.50
43089;DHT22;28709;52.030;5.652;2022-08-19T13:26:44;26.10;99.60
43089;DHT22;28709;52.030;5.652;2022-08-19T13:29:10;26.00;99.80
43089;DHT22;28709;52.030;5.652;2022-08-19T13:31:54;25.80;99.90
43089;DHT22;28709;52.030;5.652;2022-08-19T13:34:38;25.60;99.90
43089;DHT22;28709;52.030;5.652;2022-08-19T13:37:04;25.30;99.90
43089;DHT22;28709;52.030;5.652;2022-08-19T13:39:34;25.00;99.90
43089;DHT22;28709;52.030;5.652;2022-08-19T13:42:00;24.70;99.90
43089;DHT22;28709;52.030;5.652;2022-08-19T13:44:27;24.60;99.90
43089;DHT22;28709;52.030;5.652;2022-08-19T13:46:59;24.40;99.90
43089;DHT22;28709;52.030;5.652;2022-08-19T13:49:27;24.20;99.90
43089;DHT22;28709;52.030;5.652;2022-08-19T13:51:56;24.10;99.90
43089;DHT22;28709;52.030;5.652;2022-08-19T13:54:21;24.00;99.90
43089;DHT22;28709;52.030;5.652;2022-08-19T13:56:47;24.00;99.90
43089;DHT22;28709;52.030;5.652;2022-08-19T13:59:13;24.00;99.90
43089;DHT22;28709;52.030;5.652;2022-08-19T14:01:39;23.90;99.90
43089;DHT22;28709;52.030;5.652;2022-08-19T14:04:05;23.90;99.90
43089;DHT22;28709;52.030;5.652;2022-08-19T14:06:31;23.90;99.90
43089;DHT22;28709;52.030;5.652;2022-08-19T14:08:57;23.90;99.90
43089;DHT22;28709;52.030;5.652;2022-08-19T14:11:23;24.00;99.90
43089;DHT22;28709;52.030;5.652;2022-08-19T14:13:50;24.00;99.90
43089;DHT22;28709;52.030;5.652;2022-08-19T14:16:16;24.00;99.90
43089;DHT22;28709;52.030;5.652;2022-08-19T14:18:42;24.10;99.90
43089;DHT22;28709;52.030;5.652;2022-08-19T14:21:15;24.10;99.90
43089;DHT22;28709;52.030;5.652;2022-08-19T14:23:41;24.20;99.90
43089;DHT22;28709;52.030;5.652;2022-08-19T14:26:09;24.20;99.90
43089;DHT22;28709;52.030;5.652;2022-08-19T14:28:37;24.20;99.90
43089;DHT22;28709;52.030;5.652;2022-08-19T14:31:04;24.20;99.90
43089;DHT22;28709;52.030;5.652;2022-08-19T14:33:30;24.30;99.90
43089;DHT22;28709;52.030;5.652;2022-08-19T14:35:57;24.30;99.90
43089;DHT22;28709;52.030;5.652;2022-08-19T14:38:22;24.20;99.90
43089;DHT22;28709;52.030;5.652;2022-08-19T14:40:48;23.90;99.90
43089;DHT22;28709;52.030;5.652;2022-08-19T14:43:14;23.60;99.90
43089;DHT22;28709;52.030;5.652;2022-08-19T14:45:40;23.20;99.90
43089;DHT22;28709;52.030;5.652;2022-08-19T14:48:06;22.90;99.90
43089;DHT22;28709;52.030;5.652;2022-08-19T14:50:33;22.50;99.90
43089;DHT22;28709;52.030;5.652;2022-08-19T14:53:06;22.20;99.90
43089;DHT22;28709;52.030;5.652;2022-08-19T14:55:32;21.90;99.90
43089;DHT22;28709;52.030;5.652;2022-08-19T14:57:58;21.80;99.90
43089;DHT22;28709;52.030;5.652;2022-08-19T15:00:25;21.70;99.90
43089;DHT22;28709;52.030;5.652;2022-08-19T15:02:51;21.60;99.90
43089;DHT22;28709;52.030;5.652;2022-08-19T15:05:17;21.60;99.90
43089;DHT22;28709;52.030;5.652;2022-08-19T15:07:43;21.50;99.90
43089;DHT22;28709;52.030;5.652;2022-08-19T15:10:11;21.50;99.90
43089;DHT22;28709;52.030;5.652;2022-08-19T15:12:39;21.60;99.90
43089;DHT22;28709;52.030;5.652;2022-08-19T15:15:13;21.60;99.90
43089;DHT22;28709;52.030;5.652;2022-08-19T15:17:43;21.60;99.90
43089;DHT22;28709;52.030;5.652;2022-08-19T15:20:11;21.60;99.90
43089;DHT22;28709;52.030;5.652;2022-08-19T15:22:38;21.70;99.90
43089;DHT22;28709;52.030;5.652;2022-08-19T15:25:05;21.60;99.90
43089;DHT22;28709;52.030;5.652;2022-08-19T15:27:31;21.70;99.90
43089;DHT22;28709;52.030;5.652;2022-08-19T15:29:57;21.70;99.90
43089;DHT22;28709;52.030;5.652;2022-08-19T15:32:24;21.60;99.90
43089;DHT22;28709;52.030;5.652;2022-08-19T15:34:51;21.60;99.90
43089;DHT22;28709;52.030;5.652;2022-08-19T15:37:17;21.60;99.90
43089;DHT22;28709;52.030;5.652;2022-08-19T15:39:42;21.70;99.90
43089;DHT22;28709;52.030;5.652;2022-08-19T15:42:08;21.70;99.90
43089;DHT22;28709;52.030;5.652;2022-08-19T15:44:34;21.70;99.90
43089;DHT22;28709;52.030;5.652;2022-08-19T15:46:59;21.70;99.90